Time;durP1;ratioP1;P1;durP2;ratioP2;P2;SDS_P1;SDS_P2;PMS_P1;PMS_P2;Temp;Humidity;BMP_temperature;BMP_pressure;BME280_temperature;BME280_humidity;BME280_pressure;Samples;Min_cycle;Max_cycle;Signal;HPM_P1;HPM_P2
2021/11/02 00:00:23;;;;;;;;;1.33;1.00;;;;;13.19;62.62;99466.88;2075171;28;46841;-62
2021/11/02 00:01:26;;;;;;;;;1.67;1.67;;;;;13.21;62.56;99477.44;2082875;28;47108;-61
2021/11/02 00:02:27;;;;;;;;;2.75;2.50;;;;;13.20;62.58;99479.25;2092547;28;48369;-60
2021/11/02 00:03:27;;;;;;;;;2.00;2.00;;;;;13.21;62.54;99486.34;2091224;28;48204;-61
2021/11/02 00:04:28;;;;;;;;;2.00;2.00;;;;;13.21;62.64;99488.09;2092389;28;47158;-61
2021/11/02 00:05:29;;;;;;;;;4.00;2.67;;;;;13.21;62.81;99477.44;2091226;28;47289;-61
2021/11/02 00:06:29;;;;;;;;;3.00;3.00;;;;;13.21;62.63;99486.34;2092083;28;47340;-61
2021/11/02 00:07:30;;;;;;;;;1.00;1.00;;;;;13.22;62.79;99476.53;2091778;28;47991;-61
2021/11/02 00:08:30;;;;;;;;;2.00;2.00;;;;;13.24;62.68;99482.63;2082853;28;47222;-61
2021/11/02 00:09:34;;;;;;;;;1.33;1.33;;;;;13.24;62.71;99487.97;2074601;28;45641;-61
2021/11/02 00:10:52;;;;;;;;;2.75;1.75;;;;;13.24;62.67;99486.16;2084612;28;47516;-61
2021/11/02 00:11:53;;;;;;;;;2.00;2.00;;;;;13.24;62.70;99474.66;2092010;28;47504;-61
2021/11/02 00:12:54;;;;;;;;;3.00;2.00;;;;;13.25;62.62;99479.91;2092191;28;47348;-61
2021/11/02 00:14:00;;;;;;;;;2.00;2.00;;;;;13.25;62.56;99484.38;2083138;28;46131;-61
2021/11/02 00:15:01;;;;;;;;;2.75;2.50;;;;;13.24;62.58;99478.19;2075626;28;48420;-60
2021/11/02 00:16:03;;;;;;;;;1.00;1.00;;;;;13.25;62.66;99477.22;2083571;28;46178;-61
2021/11/02 00:17:13;;;;;;;;;2.00;2.00;;;;;13.25;62.72;99474.56;2092318;28;47189;-61
2021/11/02 00:18:14;;;;;;;;;2.75;2.25;;;;;13.25;62.66;99471.91;2092171;28;47496;-61
2021/11/02 00:19:15;;;;;;;;;1.67;1.67;;;;;13.26;62.66;99475.44;2092036;28;47310;-61
2021/11/02 00:20:16;;;;;;;;;4.00;2.50;;;;;13.25;62.62;99469.25;2092082;28;48350;-61
2021/11/02 00:21:17;;;;;;;;;3.00;2.00;;;;;13.25;62.47;99471.91;2079758;28;47343;-60
2021/11/02 00:22:18;;;;;;;;;3.50;3.50;;;;;13.26;62.51;99467.44;2066712;28;48474;-61
2021/11/02 00:23:18;;;;;;;;;2.00;2.00;;;;;13.25;62.74;99474.56;2082665;28;47607;-61
2021/11/02 00:25:34;;;;;;;;;0.75;0.75;;;;;13.25;62.73;99471.91;2081327;28;48221;-61
2021/11/02 00:26:35;;;;;;;;;2.50;2.00;;;;;13.25;62.83;99465.72;2091947;28;47258;-61
2021/11/02 00:27:38;;;;;;;;;3.00;2.00;;;;;13.25;62.69;99471.91;2091846;28;46970;-61
2021/11/02 00:28:39;;;;;;;;;1.00;1.00;;;;;13.27;62.73;99470.97;2092008;28;48125;-61
2021/11/02 00:29:40;;;;;;;;;1.00;1.00;;;;;13.25;62.66;99471.03;2091908;28;46193;-61
2021/11/02 00:30:40;;;;;;;;;2.67;1.67;;;;;13.26;62.64;99475.44;2091919;28;47101;-61
2021/11/02 00:31:41;;;;;;;;;3.00;2.00;;;;;13.24;62.67;99464.84;2092146;28;45331;-62
2021/11/02 00:32:44;;;;;;;;;1.00;1.00;;;;;13.24;62.56;99462.19;2083008;28;48386;-61
2021/11/02 00:33:44;;;;;;;;;2.00;2.00;;;;;13.24;62.63;99467.53;2082987;28;48606;-61
2021/11/02 00:34:45;;;;;;;;;3.00;2.00;;;;;13.24;62.74;99464.84;2083820;28;47211;-61
2021/11/02 00:35:45;;;;;;;;;3.00;2.00;;;;;13.24;62.57;99459.53;2078894;28;48289;-61
2021/11/02 00:36:46;;;;;;;;;2.00;2.00;;;;;13.24;62.65;99462.19;2083189;28;46814;-61
2021/11/02 00:37:46;;;;;;;;;3.00;2.00;;;;;13.23;62.69;99460.47;2082796;28;48115;-60
2021/11/02 00:38:47;;;;;;;;;1.00;1.00;;;;;13.25;62.73;99460.38;2083485;28;48236;-61
2021/11/02 00:39:48;;;;;;;;;1.00;1.00;;;;;13.24;62.63;99454.19;2091874;28;47448;-61
2021/11/02 00:40:48;;;;;;;;;2.00;2.00;;;;;13.24;62.79;99456.84;2091878;28;47292;-61
2021/11/02 00:41:49;;;;;;;;;2.00;2.00;;;;;13.23;62.77;99457.81;2092514;28;47280;-61
2021/11/02 00:42:52;;;;;;;;;3.25;2.75;;;;;13.23;62.85;99449.81;2091995;28;47378;-61
2021/11/02 00:43:54;;;;;;;;;3.50;2.25;;;;;13.23;62.70;99452.47;2090102;28;47457;-61
2021/11/02 00:44:56;;;;;;;;;1.00;1.00;;;;;13.22;62.69;99453.41;2083260;28;47462;-61
2021/11/02 00:45:57;;;;;;;;;1.00;1.00;;;;;13.21;62.79;99457.03;2091603;28;48417;-61
2021/11/02 00:46:57;;;;;;;;;1.33;1.33;;;;;13.22;62.98;99449.91;2089900;28;47410;-61
2021/11/02 00:47:59;;;;;;;;;2.33;2.33;;;;;13.21;62.84;99454.38;2091896;28;46960;-61
2021/11/02 00:49:02;;;;;;;;;2.50;1.25;;;;;13.20;62.57;99451.75;2091584;28;48476;-61
2021/11/02 00:50:10;;;;;;;;;2.00;2.00;;;;;13.18;62.91;99451.84;2093701;28;47460;-61
2021/11/02 00:51:11;;;;;;;;;1.75;1.75;;;;;13.18;62.93;99450.94;2091768;28;48621;-61
2021/11/02 00:52:11;;;;;;;;;1.33;1.33;;;;;13.16;62.86;99448.38;2091601;28;47697;-60
2021/11/02 00:53:12;;;;;;;;;1.67;1.67;;;;;13.16;62.84;99456.34;2091530;28;46874;-61
2021/11/02 00:54:13;;;;;;;;;1.00;1.00;;;;;13.16;62.99;99451.03;2092030;28;47337;-61
2021/11/02 00:55:14;;;;;;;;;2.50;1.75;;;;;13.15;62.91;99446.66;2091293;28;48141;-61
2021/11/02 00:56:14;;;;;;;;;1.00;1.00;;;;;13.15;62.97;99448.44;2083100;28;48204;-61
2021/11/02 00:57:15;;;;;;;;;1.00;1.00;;;;;13.15;62.96;99445.78;2082594;28;47427;-61
2021/11/02 00:58:15;;;;;;;;;2.00;1.00;;;;;13.14;63.04;99436.06;2091864;28;47115;-61
2021/11/02 00:59:16;;;;;;;;;4.00;3.00;;;;;13.14;62.94;99441.41;2091561;28;48535;-61
2021/11/02 01:00:17;;;;;;;;;1.33;1.00;;;;;13.13;62.98;99431.69;2091867;28;48264;-61
2021/11/02 01:01:17;;;;;;;;;2.33;1.67;;;;;13.12;63.05;99436.16;2082666;28;45653;-61
2021/11/02 01:02:18;;;;;;;;;2.67;2.00;;;;;13.13;63.04;99435.22;2083035;28;46792;-61
2021/11/02 01:03:19;;;;;;;;;1.75;1.00;;;;;13.12;63.10;99430.84;2082621;28;48337;-61
2021/11/02 01:04:19;;;;;;;;;2.00;2.00;;;;;13.13;63.32;99432.56;2078879;28;46872;-61
2021/11/02 01:05:20;;;;;;;;;1.00;1.00;;;;;13.13;63.20;99435.22;2081353;28;47468;-61
2021/11/02 01:06:20;;;;;;;;;1.00;1.00;;;;;13.14;63.17;99434.28;2082984;28;45106;-61
2021/11/02 01:07:21;;;;;;;;;0.00;0.00;;;;;13.14;63.29;99431.59;2082640;28;47117;-61
2021/11/02 01:08:22;;;;;;;;;1.33;1.00;;;;;13.15;63.21;99429.81;2091627;28;47168;-61
2021/11/02 01:09:22;;;;;;;;;1.00;1.00;;;;;13.16;63.21;99429.72;2091517;28;47753;-61
2021/11/02 01:10:23;;;;;;;;;1.67;1.67;;;;;13.16;63.20;99420.88;2082973;28;47095;-61
2021/11/02 01:11:24;;;;;;;;;1.00;1.00;;;;;13.16;63.11;99431.53;2074235;28;46343;-61
2021/11/02 01:12:24;;;;;;;;;1.00;1.00;;;;;13.17;63.31;99430.56;2082774;28;47250;-61
2021/11/02 01:13:27;;;;;;;;;1.00;1.00;;;;;13.17;63.31;99428.78;2091558;28;48149;-61
2021/11/02 01:14:27;;;;;;;;;2.00;2.00;;;;;13.18;63.43;99434.97;2091609;28;47465;-61
2021/11/02 01:15:30;;;;;;;;;1.00;1.00;;;;;13.18;63.24;99433.19;2091722;28;47288;-61
2021/11/02 01:16:31;;;;;;;;;2.00;2.00;;;;;13.17;63.24;99431.44;2091604;28;48336;-61
2021/11/02 01:17:31;;;;;;;;;1.00;1.00;;;;;13.17;63.28;99434.09;2091510;28;46912;-61
2021/11/02 01:18:32;;;;;;;;;2.00;1.00;;;;;13.17;63.37;99434.09;2091746;28;48219;-61
2021/11/02 01:19:33;;;;;;;;;2.00;2.00;;;;;13.18;63.28;99429.63;2082177;28;48398;-61
2021/11/02 01:20:33;;;;;;;;;1.67;1.67;;;;;13.18;63.19;99438.53;2082455;28;48340;-61
2021/11/02 01:21:33;;;;;;;;;0.33;0.33;;;;;13.18;63.28;99429.63;2085854;28;47146;-61
2021/11/02 01:22:34;;;;;;;;;1.33;1.00;;;;;13.19;63.35;99432.25;2085924;28;47313;-61
2021/11/02 01:23:36;;;;;;;;;2.00;1.67;;;;;13.19;63.24;99436.72;2091648;28;47099;-61
2021/11/02 01:24:36;;;;;;;;;1.00;1.00;;;;;13.18;63.34;99433.19;2082301;28;46921;-61
2021/11/02 01:25:37;;;;;;;;;1.67;1.67;;;;;13.18;62.98;99435.84;2081130;28;47524;-61
2021/11/02 01:26:38;;;;;;;;;1.00;1.00;;;;;13.18;63.26;99424.31;2091791;28;46207;-61
2021/11/02 01:27:42;;;;;;;;;2.00;1.00;;;;;13.18;63.25;99427.88;2091390;28;46323;-61
2021/11/02 01:28:43;;;;;;;;;1.00;1.00;;;;;13.17;63.28;99428.78;2091694;28;47539;-61
2021/11/02 01:29:43;;;;;;;;;2.67;2.00;;;;;13.17;63.34;99427.91;2082748;28;46056;-61
2021/11/02 01:30:44;;;;;;;;;1.00;1.00;;;;;13.18;63.34;99424.31;2082697;28;47078;-61
2021/11/02 01:31:45;;;;;;;;;1.00;1.00;;;;;13.18;63.43;99424.31;2083460;28;47364;-61
2021/11/02 01:32:46;;;;;;;;;1.00;1.00;;;;;13.17;63.13;99426.09;2090489;28;47154;-60
2021/11/02 01:33:46;;;;;;;;;1.00;1.00;;;;;13.17;63.25;99428.78;2091571;28;47274;-61
2021/11/02 01:34:47;;;;;;;;;1.33;1.33;;;;;13.17;63.38;99426.09;2091709;28;48327;-61
2021/11/02 01:35:47;;;;;;;;;1.33;1.33;;;;;13.20;63.47;99430.44;2091603;28;47384;-61
2021/11/02 01:36:49;;;;;;;;;1.33;1.33;;;;;13.19;63.34;99424.25;2091488;28;47524;-61
2021/11/02 01:37:50;;;;;;;;;1.50;1.50;;;;;13.19;63.40;99423.41;2091186;28;47200;-61
2021/11/02 01:38:51;;;;;;;;;2.00;2.00;;;;;13.19;63.27;99426.06;2092309;28;48374;-61
2021/11/02 01:39:52;;;;;;;;;1.75;1.25;;;;;13.19;63.34;99426.91;2091643;28;47566;-61
2021/11/02 01:40:54;;;;;;;;;1.00;1.00;;;;;13.19;63.27;99421.59;2091849;28;45327;-61
2021/11/02 01:41:55;;;;;;;;;2.25;2.25;;;;;13.19;63.45;99413.59;2091683;28;47269;-61
2021/11/02 01:42:55;;;;;;;;;1.00;1.00;;;;;13.19;63.56;99424.25;2082915;28;47154;-60
2021/11/02 01:43:57;;;;;;;;;1.33;1.33;;;;;13.19;63.34;99416.25;2082911;28;46526;-61
2021/11/02 01:44:59;;;;;;;;;1.00;1.00;;;;;13.19;63.47;99421.59;2091484;28;47457;-60
2021/11/02 01:46:02;;;;;;;;;2.25;1.25;;;;;13.21;63.34;99421.50;2091135;28;47577;-60
2021/11/02 01:47:05;;;;;;;;;2.00;2.00;;;;;13.20;63.46;99420.66;2089205;28;47142;-61
2021/11/02 01:48:06;;;;;;;;;1.00;1.00;;;;;13.20;63.48;99414.47;2091509;28;45523;-61
2021/11/02 01:49:07;;;;;;;;;1.25;1.25;;;;;13.20;63.43;99415.31;2091344;28;47197;-61
2021/11/02 01:50:09;;;;;;;;;1.75;1.75;;;;;13.20;63.44;99417.97;2091501;28;47434;-60
2021/11/02 01:51:09;;;;;;;;;1.50;1.00;;;;;13.20;63.41;99415.31;2091467;28;48384;-60
2021/11/02 01:52:10;;;;;;;;;2.00;2.00;;;;;13.20;63.46;99415.31;2091175;28;47638;-61
2021/11/02 01:53:11;;;;;;;;;1.25;1.00;;;;;13.21;63.34;99424.16;2091425;28;47886;-61
2021/11/02 01:54:12;;;;;;;;;2.00;2.00;;;;;13.19;63.42;99413.59;2091525;28;46986;-61
2021/11/02 01:55:14;;;;;;;;;1.50;1.50;;;;;13.20;63.45;99403.81;2091299;28;48260;-61
2021/11/02 01:56:17;;;;;;;;;2.00;2.00;;;;;13.19;63.42;99420.72;2091517;28;47347;-61
2021/11/02 01:57:18;;;;;;;;;1.75;1.75;;;;;13.20;63.32;99419.78;2091211;28;47492;-61
2021/11/02 01:58:20;;;;;;;;;0.75;0.75;;;;;13.20;63.51;99412.66;2091423;28;47969;-61
2021/11/02 01:59:26;;;;;;;;;4.50;3.25;;;;;13.19;63.36;99412.75;2082631;28;46756;-61
2021/11/02 02:00:28;;;;;;;;;1.00;1.00;;;;;13.18;63.43;99414.53;2083258;28;47321;-61
2021/11/02 02:01:49;;;;;;;;;2.00;1.75;;;;;13.18;63.37;99414.53;2082617;28;47366;-60
2021/11/02 02:03:11;;;;;;;;;0.25;0.25;;;;;13.19;63.52;99418.94;2077387;28;47411;-60
2021/11/02 02:04:23;;;;;;;;;0.75;0.25;;;;;13.20;63.65;99417.13;2083718;28;45444;-60
2021/11/02 02:05:49;;;;;;;;;1.00;1.00;;;;;13.20;63.67;99414.47;2081060;28;46973;-61
2021/11/02 02:06:57;;;;;;;;;1.75;1.00;;;;;13.21;63.28;99416.19;2082621;28;48280;-61
2021/11/02 02:08:04;;;;;;;;;1.00;1.00;;;;;13.20;63.54;99420.66;2086611;28;47072;-61
2021/11/02 02:09:38;;;;;;;;;1.25;1.00;;;;;13.21;63.55;99416.19;2091594;28;47483;-60
2021/11/02 02:10:55;;;;;;;;;1.25;1.25;;;;;13.22;63.53;99415.25;2074575;28;47000;-61
2021/11/02 02:12:05;;;;;;;;;4.25;2.00;;;;;13.22;63.54;99424.13;2084191;28;45312;-61
2021/11/02 02:13:13;;;;;;;;;2.00;2.00;;;;;13.22;63.62;99429.44;2091282;28;47081;-61
2021/11/02 02:14:17;;;;;;;;;1.50;1.50;;;;;13.23;63.60;99425.84;2091703;28;46124;-61
2021/11/02 02:15:56;;;;;;;;;1.25;1.25;;;;;13.23;63.69;99424.97;2091364;28;47298;-61
2021/11/02 02:16:59;;;;;;;;;1.25;1.25;;;;;13.22;63.56;99423.25;2091560;28;47314;-61
2021/11/02 02:18:08;;;;;;;;;1.00;1.00;;;;;13.23;63.79;99419.66;2091353;28;47233;-61
2021/11/02 02:19:21;;;;;;;;;1.00;1.00;;;;;13.21;63.55;99419.72;2091175;28;45694;-61
2021/11/02 02:20:54;;;;;;;;;0.75;0.75;;;;;13.21;63.44;99425.06;2091772;28;47130;-61
2021/11/02 02:22:25;;;;;;;;;1.25;1.00;;;;;13.20;63.48;99420.66;2065428;28;47367;-61
2021/11/02 02:23:51;;;;;;;;;1.00;1.00;;;;;13.21;63.63;99427.72;2074293;28;45353;-61
2021/11/02 02:25:30;;;;;;;;;2.00;2.00;;;;;13.21;63.50;99430.38;2075450;28;47129;-60
2021/11/02 02:27:09;;;;;;;;;2.75;1.50;;;;;13.22;63.71;99424.13;2079683;28;47358;-61
2021/11/02 02:28:18;;;;;;;;;2.00;2.00;;;;;13.22;63.65;99418.78;2087971;28;47476;-61
2021/11/02 02:29:22;;;;;;;;;1.00;1.00;;;;;13.21;63.75;99414.41;2091022;28;47951;-61
2021/11/02 02:30:23;;;;;;;;;1.25;1.25;;;;;13.22;63.72;99415.25;2091555;28;47333;-61
2021/11/02 02:31:28;;;;;;;;;3.00;1.00;;;;;13.23;63.73;99419.66;2091804;28;46968;-59
2021/11/02 02:32:29;;;;;;;;;1.00;1.00;;;;;13.22;63.71;99416.13;2084200;28;45350;-61
2021/11/02 02:33:35;;;;;;;;;2.00;1.25;;;;;13.22;63.87;99415.25;2083845;28;46899;-61
2021/11/02 02:34:37;;;;;;;;;3.00;1.00;;;;;13.23;63.61;99420.50;2084173;28;47548;-61
2021/11/02 02:35:40;;;;;;;;;1.00;1.00;;;;;13.23;63.75;99412.50;2083848;28;45732;-61
2021/11/02 02:36:44;;;;;;;;;2.75;2.00;;;;;13.24;63.66;99416.03;2084189;28;45185;-61
2021/11/02 02:37:48;;;;;;;;;2.25;2.00;;;;;13.23;63.72;99419.66;2084071;28;45112;-61
2021/11/02 02:38:50;;;;;;;;;2.00;2.00;;;;;13.24;63.70;99413.38;2084232;28;45409;-61
2021/11/02 02:39:54;;;;;;;;;2.75;2.75;;;;;13.24;63.81;99413.38;2083890;28;47208;-61
2021/11/02 02:40:56;;;;;;;;;1.00;1.00;;;;;13.24;63.72;99410.72;2083985;28;47356;-60
2021/11/02 02:41:59;;;;;;;;;1.00;1.00;;;;;13.23;63.77;99412.50;2083764;28;48297;-60
2021/11/02 02:43:01;;;;;;;;;2.00;2.00;;;;;13.23;63.57;99411.66;2092435;28;45437;-61
2021/11/02 02:44:03;;;;;;;;;1.25;1.25;;;;;13.22;63.65;99412.59;2088929;28;47714;-61
2021/11/02 02:45:07;;;;;;;;;1.75;1.00;;;;;13.24;63.70;99413.38;2085860;28;48449;-61
2021/11/02 02:46:09;;;;;;;;;1.00;1.00;;;;;13.23;63.62;99412.50;2092789;28;46388;-61
2021/11/02 02:47:10;;;;;;;;;3.00;3.00;;;;;13.23;63.57;99407.19;2078324;28;45529;-61
2021/11/02 02:48:14;;;;;;;;;3.75;2.25;;;;;13.24;63.65;99405.38;2076356;28;45931;-61
2021/11/02 02:49:16;;;;;;;;;2.75;2.75;;;;;13.23;63.64;99409.84;2092372;28;48257;-61
2021/11/02 02:50:19;;;;;;;;;1.75;1.75;;;;;13.23;63.70;99396.53;2092703;28;47038;-61
2021/11/02 02:51:22;;;;;;;;;2.00;2.00;;;;;13.23;63.65;99409.84;2083846;28;46793;-61
2021/11/02 02:52:25;;;;;;;;;1.00;1.00;;;;;13.23;63.83;99409.84;2073227;28;48485;-61
2021/11/02 02:53:26;;;;;;;;;0.50;0.25;;;;;13.24;63.72;99402.72;2075567;28;47382;-60
2021/11/02 02:54:29;;;;;;;;;1.25;1.25;;;;;13.24;64.03;99398.25;2075652;28;45441;-60
2021/11/02 02:55:32;;;;;;;;;2.25;1.25;;;;;13.24;63.68;99400.91;2075579;28;47728;-60
2021/11/02 02:56:33;;;;;;;;;1.75;1.75;;;;;13.25;63.78;99402.63;2084142;28;46424;-60
2021/11/02 02:57:34;;;;;;;;;2.00;1.00;;;;;13.25;63.60;99401.78;2092058;28;47300;-60
2021/11/02 02:58:40;;;;;;;;;1.00;1.00;;;;;13.25;63.53;99402.63;2075310;28;47317;-60
2021/11/02 02:59:41;;;;;;;;;1.50;1.25;;;;;13.25;63.75;99393.78;2076956;28;47857;-60
2021/11/02 03:00:43;;;;;;;;;2.25;1.50;;;;;13.25;63.66;99397.31;2092738;28;47785;-60
2021/11/02 03:01:46;;;;;;;;;2.00;2.00;;;;;13.25;63.56;99401.78;2092386;28;47461;-60
2021/11/02 03:02:50;;;;;;;;;3.25;2.25;;;;;13.25;63.58;99394.63;2092715;28;45290;-60
2021/11/02 03:03:56;;;;;;;;;1.00;1.00;;;;;13.25;63.57;99402.63;2075472;28;45981;-60
2021/11/02 03:05:00;;;;;;;;;1.00;0.25;;;;;13.25;63.53;99399.97;2071283;28;47315;-60
2021/11/02 03:06:06;;;;;;;;;1.00;1.00;;;;;13.25;63.47;99394.63;2076331;28;47513;-60
2021/11/02 03:07:07;;;;;;;;;2.00;1.00;;;;;13.25;63.64;99396.44;2067474;28;46936;-60
2021/11/02 03:08:08;;;;;;;;;1.67;1.67;;;;;13.24;63.43;99395.59;2075513;28;47086;-60
2021/11/02 03:09:09;;;;;;;;;1.00;1.00;;;;;13.25;63.40;99391.97;2084042;28;46484;-60
2021/11/02 03:10:12;;;;;;;;;1.75;1.75;;;;;13.25;63.42;99385.78;2092402;28;47681;-60
2021/11/02 03:11:16;;;;;;;;;1.00;1.00;;;;;13.25;63.43;99391.97;2091522;28;48329;-60
2021/11/02 03:12:25;;;;;;;;;2.50;1.25;;;;;13.25;63.43;99391.13;2092769;28;47208;-61
2021/11/02 03:13:32;;;;;;;;;0.75;0.75;;;;;13.24;63.52;99389.41;2090810;28;47315;-60
2021/11/02 03:14:57;;;;;;;;;1.75;1.00;;;;;13.25;63.37;99383.97;2092840;28;47275;-60
2021/11/02 03:16:05;;;;;;;;;1.25;1.00;;;;;13.25;63.42;99388.44;2092252;28;48175;-60
2021/11/02 03:17:09;;;;;;;;;1.00;1.00;;;;;13.25;63.27;99386.66;2092802;28;48256;-60
2021/11/02 03:18:54;;;;;;;;;1.75;1.50;;;;;13.24;63.38;99382.25;2083622;28;47235;-60
2021/11/02 03:51:46;;;;;;;;;1.00;1.00;;;;;13.01;63.67;99401.22;2092269;28;47277;-60
2021/11/02 03:55:31;;;;;;;;;4.00;1.25;;;;;13.03;63.92;99399.34;2092027;28;47404;-60
2021/11/02 03:56:45;;;;;;;;;0.25;0.25;;;;;13.04;63.73;99394.88;2092511;28;48313;-61
2021/11/02 03:57:57;;;;;;;;;1.75;1.75;;;;;13.05;63.81;99394.78;2092335;28;47299;-60
2021/11/02 04:28:17;;;;;;;;;2.75;1.50;;;;;13.09;63.93;99404.38;2091120;28;48591;-59
2021/11/02 05:50:05;;;;;;;;;1.75;1.25;;;;;12.94;63.72;99424.66;2091623;28;45396;-61
2021/11/02 05:53:40;;;;;;;;;2.75;1.00;;;;;12.92;63.44;99429.19;2091392;28;47500;-60
2021/11/02 05:59:47;;;;;;;;;3.00;1.25;;;;;12.89;63.33;99429.34;2049550;28;45541;-61
2021/11/02 06:01:05;;;;;;;;;1.75;1.75;;;;;12.88;63.37;99422.31;2047931;28;48220;-61
2021/11/02 06:09:35;;;;;;;;;1.50;1.50;;;;;12.83;63.40;99421.69;2094065;28;47481;-61
2021/11/02 06:28:45;;;;;;;;;1.00;1.00;;;;;12.74;63.24;99448.78;2094475;28;47238;-62
2021/11/02 06:29:46;;;;;;;;;1.00;1.00;;;;;12.75;63.08;99446.97;2093936;28;47575;-64
2021/11/02 06:31:00;;;;;;;;;1.00;1.00;;;;;12.76;63.15;99440.72;2094485;28;45326;-64
2021/11/02 06:32:13;;;;;;;;;2.00;2.00;;;;;12.74;63.09;99445.25;2085639;28;47548;-65
2021/11/02 06:33:40;;;;;;;;;1.00;1.00;;;;;12.75;62.99;99452.31;2092112;28;47694;-65
2021/11/02 06:36:12;;;;;;;;;0.25;0.25;;;;;12.76;62.74;99448.72;2085738;28;47449;-64
2021/11/02 06:41:58;;;;;;;;;1.00;1.00;;;;;12.74;62.85;99454.13;2076765;28;48512;-63
2021/11/02 06:50:01;;;;;;;;;1.00;1.00;;;;;12.76;62.52;99448.72;2093501;28;47354;-65
2021/11/02 06:56:35;;;;;;;;;0.25;0.00;;;;;12.74;62.36;99467.41;2094037;28;48186;-64
2021/11/02 07:18:06;;;;;;;;;2.00;1.50;;;;;12.72;61.87;99487.06;2077884;28;46905;-67
2021/11/02 07:19:21;;;;;;;;;1.25;1.25;;;;;12.70;61.77;99479.13;2085302;28;47206;-64
2021/11/02 07:21:57;;;;;;;;;1.00;1.00;;;;;12.71;61.96;99482.69;2088366;28;48400;-64
2021/11/02 07:24:14;;;;;;;;;2.00;2.00;;;;;12.71;61.81;99485.34;2092256;28;48204;-64
2021/11/02 08:47:46;;;;;;;;;1.75;1.75;;;;;12.66;61.72;99557.44;2085678;28;48739;-66
2021/11/02 08:48:28;;;;;;;;;0.75;0.75;;;;;12.67;61.18;99560.00;2075248;28;48347;-66
2021/11/02 08:49:28;;;;;;;;;1.50;1.50;;;;;12.67;61.32;99569.81;2088113;28;48121;-66
2021/11/02 08:50:41;;;;;;;;;0.33;0.33;;;;;12.67;61.31;99575.97;2082968;28;45415;-66
2021/11/02 08:51:42;;;;;;;;;1.00;1.00;;;;;12.66;61.30;99565.41;2076353;28;47247;-67
2021/11/02 08:52:50;;;;;;;;;3.00;3.00;;;;;12.65;61.22;99567.22;2091968;28;46815;-65
2021/11/02 08:53:51;;;;;;;;;1.00;0.50;;;;;12.64;61.12;99565.50;2091751;28;47097;-65
2021/11/02 08:54:54;;;;;;;;;1.25;1.25;;;;;12.63;61.23;99569.09;2092152;28;47541;-65
2021/11/02 08:55:55;;;;;;;;;2.00;2.00;;;;;12.63;61.35;99576.22;2082814;28;47784;-66
2021/11/02 08:56:56;;;;;;;;;1.00;1.00;;;;;12.63;61.28;99569.09;2074986;28;46975;-66
2021/11/02 08:57:57;;;;;;;;;1.67;1.67;;;;;12.62;61.28;99567.38;2082833;28;47435;-66
2021/11/02 08:58:58;;;;;;;;;2.33;1.00;;;;;12.63;61.36;99571.75;2091871;28;48335;-66
2021/11/02 08:59:59;;;;;;;;;1.00;1.00;;;;;12.62;61.25;99578.03;2091902;28;45434;-66
2021/11/02 09:01:01;;;;;;;;;3.33;2.33;;;;;12.62;61.23;99570.03;2091825;28;45498;-65
2021/11/02 09:02:07;;;;;;;;;1.25;0.75;;;;;12.63;61.18;99576.22;2091598;28;47836;-68
2021/11/02 09:03:16;;;;;;;;;1.00;1.00;;;;;12.62;60.98;99567.38;2091097;28;47991;-67
2021/11/02 09:04:19;;;;;;;;;1.25;1.00;;;;;12.63;60.92;99563.78;2087493;28;48703;-66
2021/11/02 09:05:34;;;;;;;;;1.00;1.00;;;;;12.62;60.91;99572.69;2089528;28;45763;-66
2021/11/02 09:06:38;;;;;;;;;0.00;0.00;;;;;12.63;60.90;99573.56;2086580;28;47239;-67
2021/11/02 09:07:39;;;;;;;;;0.75;0.75;;;;;12.61;60.87;99573.63;2091818;28;47594;-66
2021/11/02 09:08:43;;;;;;;;;1.00;1.00;;;;;12.61;60.97;99562.13;2082769;28;47307;-66
2021/11/02 09:09:47;;;;;;;;;2.00;1.25;;;;;12.61;60.85;99567.44;2083360;28;46181;-65
2021/11/02 09:10:48;;;;;;;;;1.00;1.00;;;;;12.61;61.04;99573.63;2090602;28;46020;-65
2021/11/02 09:11:53;;;;;;;;;0.75;0.75;;;;;12.61;60.92;99568.31;2081512;28;47504;-66
2021/11/02 09:12:56;;;;;;;;;1.50;1.50;;;;;12.62;61.02;99567.38;2077092;28;46984;-65
2021/11/02 09:13:58;;;;;;;;;2.00;2.00;;;;;12.64;60.91;99575.28;2074501;28;47361;-67
2021/11/02 09:15:02;;;;;;;;;1.75;1.00;;;;;12.65;61.06;99572.53;2081035;28;45479;-66
2021/11/02 09:16:04;;;;;;;;;1.25;1.25;;;;;12.67;61.08;99573.31;2074500;28;47799;-66
2021/11/02 09:17:06;;;;;;;;;2.00;2.00;;;;;12.70;61.03;99568.78;2074892;28;47438;-66
2021/11/02 09:18:09;;;;;;;;;1.25;1.25;;;;;12.70;61.02;99572.31;2089173;28;48007;-66
2021/11/02 09:19:12;;;;;;;;;1.00;1.00;;;;;12.72;60.87;99580.25;2091326;28;48230;-66
2021/11/02 09:20:15;;;;;;;;;1.00;1.00;;;;;12.73;60.86;99580.16;2083115;28;47678;-66
2021/11/02 09:21:21;;;;;;;;;2.00;2.00;;;;;12.76;60.99;99565.84;2082577;28;47247;-66
2021/11/02 09:22:22;;;;;;;;;1.00;1.00;;;;;12.79;61.16;99566.53;2091620;28;48379;-66
2021/11/02 09:23:23;;;;;;;;;1.00;1.00;;;;;12.81;60.55;99567.31;2091456;28;48088;-66
2021/11/02 09:24:24;;;;;;;;;1.00;1.00;;;;;12.83;60.70;99572.56;2083021;28;47772;-64
2021/11/02 09:25:25;;;;;;;;;1.00;1.00;;;;;12.84;60.62;99561.88;2080667;28;48067;-64
2021/11/02 09:26:26;;;;;;;;;1.00;1.00;;;;;12.84;60.43;99569.84;2082992;28;48512;-65
2021/11/02 09:27:28;;;;;;;;;2.25;1.00;;;;;12.87;60.38;99568.84;2082559;28;47614;-65
2021/11/02 09:28:29;;;;;;;;;2.00;2.00;;;;;12.88;60.49;99567.91;2091780;28;48444;-65
2021/11/02 09:29:30;;;;;;;;;2.00;2.00;;;;;12.87;60.17;99563.50;2091373;28;48318;-65
2021/11/02 09:30:31;;;;;;;;;2.00;2.00;;;;;12.89;60.33;99569.63;2082814;28;47409;-65
2021/11/02 09:31:33;;;;;;;;;1.00;1.00;;;;;12.92;60.32;99572.97;2082648;28;47500;-65
2021/11/02 09:32:41;;;;;;;;;1.00;1.00;;;;;12.95;60.19;99574.63;2092044;28;45335;-65
2021/11/02 09:33:42;;;;;;;;;0.50;0.50;;;;;12.99;60.25;99572.69;2082645;28;47740;-65
2021/11/02 09:34:42;;;;;;;;;0.00;0.00;;;;;13.03;60.25;99572.47;2082886;28;48060;-65
2021/11/02 09:35:49;;;;;;;;;2.00;2.00;;;;;13.08;60.14;99581.06;2091527;28;47602;-65
2021/11/02 09:37:02;;;;;;;;;3.00;3.00;;;;;13.13;60.32;99578.19;2091432;28;47387;-65
2021/11/02 09:38:24;;;;;;;;;2.00;2.00;;;;;13.16;59.89;99576.22;2095056;28;45360;-65
2021/11/02 09:39:27;;;;;;;;;1.75;1.75;;;;;13.22;59.93;99572.44;2082607;28;48230;-66
2021/11/02 09:40:30;;;;;;;;;1.50;1.50;;;;;13.25;59.97;99577.59;2082906;28;47634;-64
2021/11/02 09:42:00;;;;;;;;;1.00;1.00;;;;;13.29;59.60;99571.19;2087773;28;47657;-65
2021/11/02 09:43:15;;;;;;;;;1.50;1.00;;;;;13.32;59.50;99572.81;2095517;28;47359;-64
2021/11/02 09:44:45;;;;;;;;;0.50;0.00;;;;;13.34;59.36;99568.25;2086540;28;47410;-64
2021/11/02 09:46:16;;;;;;;;;1.75;0.75;;;;;13.37;59.44;99571.66;2091414;28;47479;-66
2021/11/02 09:47:29;;;;;;;;;1.75;1.75;;;;;13.36;58.86;99569.94;2087566;28;47311;-65
2021/11/02 09:48:42;;;;;;;;;0.00;0.00;;;;;13.34;58.91;99568.25;2083775;28;48167;-64
2021/11/02 09:50:02;;;;;;;;;1.00;1.00;;;;;13.32;58.88;99571.00;2091618;28;47649;-65
2021/11/02 09:51:26;;;;;;;;;2.00;0.00;;;;;13.29;58.95;99576.50;2082970;28;45497;-64
2021/11/02 09:52:51;;;;;;;;;0.00;0.00;;;;;13.28;58.96;99576.59;2075886;28;47544;-64
2021/11/02 09:54:05;;;;;;;;;1.25;1.00;;;;;13.24;58.81;99575.88;2077782;28;47291;-64
2021/11/02 09:55:27;;;;;;;;;1.00;1.00;;;;;13.21;58.85;99576.91;2077890;28;47384;-63
2021/11/02 09:56:55;;;;;;;;;1.00;1.00;;;;;13.20;58.55;99574.28;2091709;28;48170;-64
2021/11/02 09:58:17;;;;;;;;;1.25;1.25;;;;;13.18;58.90;99573.47;2091717;28;47126;-64
2021/11/02 09:59:53;;;;;;;;;1.50;1.50;;;;;13.16;58.90;99578.91;2091431;28;48395;-64
2021/11/02 10:01:21;;;;;;;;;1.00;1.00;;;;;13.17;59.05;99577.09;2091574;28;47283;-64
2021/11/02 10:02:53;;;;;;;;;1.00;1.00;;;;;13.16;59.13;99578.91;2084808;28;45356;-64
2021/11/02 10:04:34;;;;;;;;;1.00;1.00;;;;;13.16;58.89;99578.91;2089746;28;46649;-64
2021/11/02 10:05:41;;;;;;;;;0.75;0.75;;;;;13.16;58.84;99586.03;2078312;28;48555;-64
2021/11/02 10:07:13;;;;;;;;;1.00;1.00;;;;;13.16;58.83;99575.38;2083699;28;47418;-64
2021/11/02 10:08:34;;;;;;;;;1.75;1.75;;;;;13.17;58.72;99582.41;2077980;28;49004;-63
2021/11/02 10:09:57;;;;;;;;;1.75;1.00;;;;;13.17;58.85;99590.41;2083759;28;46399;-65
2021/11/02 10:11:19;;;;;;;;;1.00;1.00;;;;;13.17;59.19;99580.63;2088843;28;48710;-64
2021/11/02 10:12:22;;;;;;;;;1.50;1.00;;;;;13.20;58.96;99580.47;2087182;28;47246;-66
2021/11/02 10:13:30;;;;;;;;;0.75;0.75;;;;;13.21;59.07;99584.91;2091391;28;48083;-73